sensor_id;sensor_type;location;lat;lon;timestamp;P1;durP1;ratioP1;P2;durP2;ratioP2
20154;SDS011;10238;49.556;10.956;2023-04-25T00:01:38;4.00;;;3.70;;
20154;SDS011;10238;49.556;10.956;2023-04-25T00:04:26;3.92;;;3.63;;
20154;SDS011;10238;49.556;10.956;2023-04-25T00:07:15;3.08;;;2.88;;
20154;SDS011;10238;49.556;10.956;2023-04-25T00:10:03;3.67;;;2.92;;
20154;SDS011;10238;49.556;10.956;2023-04-25T00:12:54;4.60;;;2.92;;
20154;SDS011;10238;49.556;10.956;2023-04-25T00:15:43;5.32;;;2.67;;
20154;SDS011;10238;49.556;10.956;2023-04-25T00:18:33;2.80;;;2.58;;
20154;SDS011;10238;49.556;10.956;2023-04-25T00:21:22;3.13;;;2.75;;
20154;SDS011;10238;49.556;10.956;2023-04-25T00:24:10;3.35;;;3.03;;
20154;SDS011;10238;49.556;10.956;2023-04-25T00:26:57;3.15;;;2.95;;
20154;SDS011;10238;49.556;10.956;2023-04-25T00:29:46;4.22;;;2.92;;
20154;SDS011;10238;49.556;10.956;2023-04-25T00:32:35;3.17;;;2.67;;
20154;SDS011;10238;49.556;10.956;2023-04-25T00:35:23;2.70;;;2.42;;
20154;SDS011;10238;49.556;10.956;2023-04-25T00:38:10;3.20;;;2.78;;
20154;SDS011;10238;49.556;10.956;2023-04-25T00:40:58;2.80;;;2.60;;
20154;SDS011;10238;49.556;10.956;2023-04-25T00:43:46;2.75;;;2.55;;
20154;SDS011;10238;49.556;10.956;2023-04-25T00:46:37;2.40;;;2.20;;
20154;SDS011;10238;49.556;10.956;2023-04-25T00:49:26;3.03;;;2.78;;
20154;SDS011;10238;49.556;10.956;2023-04-25T00:52:13;3.80;;;2.90;;
20154;SDS011;10238;49.556;10.956;2023-04-25T00:55:01;2.95;;;2.75;;
20154;SDS011;10238;49.556;10.956;2023-04-25T00:57:51;3.25;;;2.97;;
20154;SDS011;10238;49.556;10.956;2023-04-25T01:00:38;2.75;;;2.55;;
20154;SDS011;10238;49.556;10.956;2023-04-25T01:03:28;2.38;;;2.17;;
20154;SDS011;10238;49.556;10.956;2023-04-25T01:06:21;3.13;;;2.88;;
20154;SDS011;10238;49.556;10.956;2023-04-25T01:09:09;2.85;;;2.65;;
20154;SDS011;10238;49.556;10.956;2023-04-25T01:11:57;2.88;;;2.67;;
20154;SDS011;10238;49.556;10.956;2023-04-25T01:14:46;3.10;;;2.90;;
20154;SDS011;10238;49.556;10.956;2023-04-25T01:17:37;3.25;;;2.50;;
20154;SDS011;10238;49.556;10.956;2023-04-25T01:20:30;2.40;;;2.20;;
20154;SDS011;10238;49.556;10.956;2023-04-25T01:23:21;3.10;;;2.80;;
20154;SDS011;10238;49.556;10.956;2023-04-25T01:26:10;3.70;;;2.50;;
20154;SDS011;10238;49.556;10.956;2023-04-25T01:28:58;3.30;;;3.00;;
20154;SDS011;10238;49.556;10.956;2023-04-25T01:31:47;2.90;;;2.60;;
20154;SDS011;10238;49.556;10.956;2023-04-25T01:34:35;2.70;;;2.50;;
20154;SDS011;10238;49.556;10.956;2023-04-25T01:37:23;2.83;;;2.40;;
20154;SDS011;10238;49.556;10.956;2023-04-25T01:40:13;2.92;;;2.60;;
20154;SDS011;10238;49.556;10.956;2023-04-25T01:43:00;2.97;;;2.70;;
20154;SDS011;10238;49.556;10.956;2023-04-25T01:45:49;2.80;;;2.50;;
20154;SDS011;10238;49.556;10.956;2023-04-25T01:48:38;2.55;;;2.35;;
20154;SDS011;10238;49.556;10.956;2023-04-25T01:51:25;2.70;;;2.40;;
20154;SDS011;10238;49.556;10.956;2023-04-25T01:54:13;2.33;;;2.15;;
20154;SDS011;10238;49.556;10.956;2023-04-25T01:57:02;2.50;;;2.30;;
20154;SDS011;10238;49.556;10.956;2023-04-25T01:59:50;2.72;;;2.53;;
20154;SDS011;10238;49.556;10.956;2023-04-25T02:02:40;2.50;;;2.30;;
20154;SDS011;10238;49.556;10.956;2023-04-25T02:05:31;3.03;;;2.78;;
20154;SDS011;10238;49.556;10.956;2023-04-25T02:08:22;3.13;;;2.83;;
20154;SDS011;10238;49.556;10.956;2023-04-25T02:11:11;2.45;;;2.25;;
20154;SDS011;10238;49.556;10.956;2023-04-25T02:14:00;2.60;;;2.40;;
20154;SDS011;10238;49.556;10.956;2023-04-25T02:16:48;3.88;;;3.50;;
20154;SDS011;10238;49.556;10.956;2023-04-25T02:19:37;2.67;;;2.47;;
20154;SDS011;10238;49.556;10.956;2023-04-25T02:22:24;2.55;;;1.98;;
20154;SDS011;10238;49.556;10.956;2023-04-25T02:25:15;4.13;;;2.85;;
20154;SDS011;10238;49.556;10.956;2023-04-25T02:28:03;4.40;;;3.33;;
20154;SDS011;10238;49.556;10.956;2023-04-25T02:30:52;3.03;;;2.70;;
20154;SDS011;10238;49.556;10.956;2023-04-25T02:33:40;4.10;;;3.30;;
20154;SDS011;10238;49.556;10.956;2023-04-25T02:36:27;4.32;;;3.92;;
20154;SDS011;10238;49.556;10.956;2023-04-25T02:39:17;3.30;;;3.00;;
20154;SDS011;10238;49.556;10.956;2023-04-25T02:42:07;4.20;;;3.35;;
20154;SDS011;10238;49.556;10.956;2023-04-25T02:44:57;6.63;;;3.70;;
20154;SDS011;10238;49.556;10.956;2023-04-25T02:47:46;5.03;;;3.38;;
20154;SDS011;10238;49.556;10.956;2023-04-25T02:50:34;3.45;;;3.15;;
20154;SDS011;10238;49.556;10.956;2023-04-25T02:53:22;4.38;;;3.70;;
20154;SDS011;10238;49.556;10.956;2023-04-25T02:56:09;3.30;;;2.95;;
20154;SDS011;10238;49.556;10.956;2023-04-25T02:58:57;3.88;;;3.53;;
20154;SDS011;10238;49.556;10.956;2023-04-25T03:01:47;3.17;;;2.95;;
20154;SDS011;10238;49.556;10.956;2023-04-25T03:04:36;3.85;;;3.55;;
20154;SDS011;10238;49.556;10.956;2023-04-25T03:07:24;3.38;;;3.00;;
20154;SDS011;10238;49.556;10.956;2023-04-25T03:10:12;3.92;;;3.55;;
20154;SDS011;10238;49.556;10.956;2023-04-25T03:12:59;4.65;;;3.92;;
20154;SDS011;10238;49.556;10.956;2023-04-25T03:15:47;4.05;;;3.55;;
20154;SDS011;10238;49.556;10.956;2023-04-25T03:18:34;3.88;;;2.95;;
20154;SDS011;10238;49.556;10.956;2023-04-25T03:21:23;3.92;;;3.03;;
20154;SDS011;10238;49.556;10.956;2023-04-25T03:24:11;2.40;;;2.17;;
20154;SDS011;10238;49.556;10.956;2023-04-25T03:26:59;2.50;;;2.30;;
20154;SDS011;10238;49.556;10.956;2023-04-25T03:29:47;2.80;;;2.30;;
20154;SDS011;10238;49.556;10.956;2023-04-25T03:32:34;2.95;;;2.53;;
20154;SDS011;10238;49.556;10.956;2023-04-25T03:35:22;4.50;;;3.25;;
20154;SDS011;10238;49.556;10.956;2023-04-25T03:38:12;2.60;;;2.40;;
20154;SDS011;10238;49.556;10.956;2023-04-25T03:41:00;3.47;;;3.17;;
20154;SDS011;10238;49.556;10.956;2023-04-25T03:43:50;4.68;;;3.25;;
20154;SDS011;10238;49.556;10.956;2023-04-25T03:46:38;5.25;;;3.80;;
20154;SDS011;10238;49.556;10.956;2023-04-25T03:49:25;4.00;;;3.45;;
20154;SDS011;10238;49.556;10.956;2023-04-25T03:52:13;4.85;;;3.00;;
20154;SDS011;10238;49.556;10.956;2023-04-25T03:55:02;4.35;;;3.92;;
20154;SDS011;10238;49.556;10.956;2023-04-25T03:57:51;3.53;;;3.15;;
20154;SDS011;10238;49.556;10.956;2023-04-25T04:00:39;2.78;;;2.58;;
20154;SDS011;10238;49.556;10.956;2023-04-25T04:03:26;3.80;;;2.55;;
20154;SDS011;10238;49.556;10.956;2023-04-25T04:06:14;4.10;;;3.70;;
20154;SDS011;10238;49.556;10.956;2023-04-25T04:09:02;4.07;;;2.63;;
20154;SDS011;10238;49.556;10.956;2023-04-25T04:11:51;3.13;;;2.83;;
20154;SDS011;10238;49.556;10.956;2023-04-25T04:14:40;3.60;;;3.25;;
20154;SDS011;10238;49.556;10.956;2023-04-25T04:17:27;3.42;;;3.10;;
20154;SDS011;10238;49.556;10.956;2023-04-25T04:20:15;3.80;;;3.20;;
20154;SDS011;10238;49.556;10.956;2023-04-25T04:23:03;6.63;;;4.65;;
20154;SDS011;10238;49.556;10.956;2023-04-25T04:25:51;5.65;;;4.25;;
20154;SDS011;10238;49.556;10.956;2023-04-25T04:28:40;4.20;;;3.80;;
20154;SDS011;10238;49.556;10.956;2023-04-25T04:31:29;6.43;;;5.07;;
20154;SDS011;10238;49.556;10.956;2023-04-25T04:34:18;5.82;;;4.00;;
20154;SDS011;10238;49.556;10.956;2023-04-25T04:37:06;4.38;;;3.83;;
20154;SDS011;10238;49.556;10.956;2023-04-25T04:39:55;6.55;;;3.80;;
20154;SDS011;10238;49.556;10.956;2023-04-25T04:42:43;4.68;;;3.85;;
20154;SDS011;10238;49.556;10.956;2023-04-25T04:45:33;3.80;;;3.50;;
20154;SDS011;10238;49.556;10.956;2023-04-25T04:48:22;3.30;;;3.00;;
20154;SDS011;10238;49.556;10.956;2023-04-25T04:51:10;4.10;;;3.45;;
20154;SDS011;10238;49.556;10.956;2023-04-25T04:53:58;6.82;;;4.15;;
20154;SDS011;10238;49.556;10.956;2023-04-25T04:56:48;4.22;;;3.30;;
20154;SDS011;10238;49.556;10.956;2023-04-25T04:59:35;5.28;;;4.38;;
20154;SDS011;10238;49.556;10.956;2023-04-25T05:02:24;3.83;;;3.38;;
20154;SDS011;10238;49.556;10.956;2023-04-25T05:05:13;4.53;;;3.83;;
20154;SDS011;10238;49.556;10.956;2023-04-25T05:08:00;5.15;;;3.55;;
20154;SDS011;10238;49.556;10.956;2023-04-25T05:10:48;4.43;;;3.75;;
20154;SDS011;10238;49.556;10.956;2023-04-25T05:13:38;4.78;;;3.22;;
20154;SDS011;10238;49.556;10.956;2023-04-25T05:16:27;3.47;;;3.17;;
20154;SDS011;10238;49.556;10.956;2023-04-25T05:19:16;4.40;;;3.15;;
20154;SDS011;10238;49.556;10.956;2023-04-25T05:22:04;3.38;;;3.08;;
20154;SDS011;10238;49.556;10.956;2023-04-25T05:24:52;3.22;;;2.97;;
20154;SDS011;10238;49.556;10.956;2023-04-25T05:27:40;5.15;;;3.30;;
20154;SDS011;10238;49.556;10.956;2023-04-25T05:30:28;3.40;;;3.10;;
20154;SDS011;10238;49.556;10.956;2023-04-25T05:33:15;3.20;;;2.90;;
20154;SDS011;10238;49.556;10.956;2023-04-25T05:36:06;3.10;;;2.80;;
20154;SDS011;10238;49.556;10.956;2023-04-25T05:38:55;2.95;;;2.67;;
20154;SDS011;10238;49.556;10.956;2023-04-25T05:41:43;2.75;;;2.55;;
20154;SDS011;10238;49.556;10.956;2023-04-25T05:44:31;3.28;;;2.97;;
20154;SDS011;10238;49.556;10.956;2023-04-25T05:47:18;3.55;;;2.90;;
20154;SDS011;10238;49.556;10.956;2023-04-25T05:50:07;5.72;;;3.53;;
20154;SDS011;10238;49.556;10.956;2023-04-25T05:52:56;3.47;;;3.13;;
20154;SDS011;10238;49.556;10.956;2023-04-25T05:55:44;4.68;;;3.42;;
20154;SDS011;10238;49.556;10.956;2023-04-25T05:58:33;3.45;;;3.15;;
20154;SDS011;10238;49.556;10.956;2023-04-25T06:01:21;5.00;;;3.60;;
20154;SDS011;10238;49.556;10.956;2023-04-25T06:04:09;5.03;;;3.25;;
20154;SDS011;10238;49.556;10.956;2023-04-25T06:06:58;4.45;;;3.50;;
20154;SDS011;10238;49.556;10.956;2023-04-25T06:09:47;5.05;;;3.50;;
20154;SDS011;10238;49.556;10.956;2023-04-25T06:12:34;5.75;;;3.85;;
20154;SDS011;10238;49.556;10.956;2023-04-25T06:15:24;4.68;;;4.28;;
20154;SDS011;10238;49.556;10.956;2023-04-25T06:18:13;4.88;;;3.45;;
20154;SDS011;10238;49.556;10.956;2023-04-25T06:21:01;4.63;;;4.10;;
20154;SDS011;10238;49.556;10.956;2023-04-25T06:23:49;5.65;;;4.50;;
20154;SDS011;10238;49.556;10.956;2023-04-25T06:26:38;5.03;;;4.10;;
20154;SDS011;10238;49.556;10.956;2023-04-25T06:29:26;4.40;;;4.00;;
20154;SDS011;10238;49.556;10.956;2023-04-25T06:32:14;4.50;;;4.05;;
20154;SDS011;10238;49.556;10.956;2023-04-25T06:35:03;4.10;;;3.70;;
20154;SDS011;10238;49.556;10.956;2023-04-25T06:37:52;4.03;;;3.60;;
20154;SDS011;10238;49.556;10.956;2023-04-25T06:40:40;5.40;;;4.30;;
20154;SDS011;10238;49.556;10.956;2023-04-25T06:43:29;4.78;;;4.38;;
20154;SDS011;10238;49.556;10.956;2023-04-25T06:46:19;6.03;;;3.92;;
20154;SDS011;10238;49.556;10.956;2023-04-25T06:49:06;4.45;;;3.65;;
20154;SDS011;10238;49.556;10.956;2023-04-25T06:51:53;5.25;;;4.07;;
20154;SDS011;10238;49.556;10.956;2023-04-25T06:54:41;4.38;;;3.67;;
20154;SDS011;10238;49.556;10.956;2023-04-25T06:57:29;4.15;;;3.53;;
20154;SDS011;10238;49.556;10.956;2023-04-25T07:00:18;5.13;;;4.15;;
20154;SDS011;10238;49.556;10.956;2023-04-25T07:03:08;8.80;;;5.73;;
20154;SDS011;10238;49.556;10.956;2023-04-25T07:05:56;5.45;;;4.93;;
20154;SDS011;10238;49.556;10.956;2023-04-25T07:08:44;4.45;;;3.50;;
20154;SDS011;10238;49.556;10.956;2023-04-25T07:11:31;5.28;;;3.10;;
20154;SDS011;10238;49.556;10.956;2023-04-25T07:14:19;3.13;;;2.90;;
20154;SDS011;10238;49.556;10.956;2023-04-25T07:17:09;3.38;;;3.03;;
20154;SDS011;10238;49.556;10.956;2023-04-25T07:19:57;3.35;;;3.05;;
20154;SDS011;10238;49.556;10.956;2023-04-25T07:22:45;4.28;;;2.92;;
20154;SDS011;10238;49.556;10.956;2023-04-25T07:25:33;4.55;;;3.05;;
20154;SDS011;10238;49.556;10.956;2023-04-25T07:28:20;3.85;;;2.80;;
20154;SDS011;10238;49.556;10.956;2023-04-25T07:31:08;2.80;;;2.35;;
20154;SDS011;10238;49.556;10.956;2023-04-25T07:33:57;3.97;;;2.60;;
20154;SDS011;10238;49.556;10.956;2023-04-25T07:36:47;4.43;;;2.70;;
20154;SDS011;10238;49.556;10.956;2023-04-25T07:39:35;2.53;;;2.33;;
20154;SDS011;10238;49.556;10.956;2023-04-25T07:42:23;2.78;;;2.50;;
20154;SDS011;10238;49.556;10.956;2023-04-25T07:45:12;3.53;;;2.85;;
20154;SDS011;10238;49.556;10.956;2023-04-25T07:48:01;2.58;;;2.38;;
20154;SDS011;10238;49.556;10.956;2023-04-25T07:50:50;2.88;;;2.58;;
20154;SDS011;10238;49.556;10.956;2023-04-25T07:53:38;6.80;;;2.70;;
20154;SDS011;10238;49.556;10.956;2023-04-25T07:56:26;4.10;;;2.53;;
20154;SDS011;10238;49.556;10.956;2023-04-25T07:59:23;3.63;;;2.60;;
20154;SDS011;10238;49.556;10.956;2023-04-25T08:02:14;4.55;;;3.40;;
20154;SDS011;10238;49.556;10.956;2023-04-25T08:05:02;3.42;;;2.50;;
20154;SDS011;10238;49.556;10.956;2023-04-25T08:07:52;4.55;;;2.85;;
20154;SDS011;10238;49.556;10.956;2023-04-25T08:10:40;3.40;;;3.10;;
20154;SDS011;10238;49.556;10.956;2023-04-25T08:13:31;3.67;;;3.35;;
20154;SDS011;10238;49.556;10.956;2023-04-25T08:16:19;4.07;;;3.20;;
20154;SDS011;10238;49.556;10.956;2023-04-25T08:19:07;3.53;;;3.10;;
20154;SDS011;10238;49.556;10.956;2023-04-25T08:21:54;8.43;;;3.50;;
20154;SDS011;10238;49.556;10.956;2023-04-25T08:24:43;4.97;;;3.33;;
20154;SDS011;10238;49.556;10.956;2023-04-25T08:27:31;3.28;;;2.63;;
20154;SDS011;10238;49.556;10.956;2023-04-25T08:30:19;3.22;;;2.75;;
20154;SDS011;10238;49.556;10.956;2023-04-25T08:33:07;3.03;;;2.72;;
20154;SDS011;10238;49.556;10.956;2023-04-25T08:35:57;5.18;;;3.40;;
20154;SDS011;10238;49.556;10.956;2023-04-25T08:38:45;7.25;;;3.15;;
20154;SDS011;10238;49.556;10.956;2023-04-25T08:41:34;4.32;;;3.35;;
20154;SDS011;10238;49.556;10.956;2023-04-25T08:44:23;3.60;;;3.30;;
20154;SDS011;10238;49.556;10.956;2023-04-25T08:47:12;5.05;;;3.63;;
20154;SDS011;10238;49.556;10.956;2023-04-25T08:50:03;3.97;;;3.60;;
20154;SDS011;10238;49.556;10.956;2023-04-25T08:52:53;7.20;;;3.60;;
20154;SDS011;10238;49.556;10.956;2023-04-25T08:55:45;4.05;;;3.65;;
20154;SDS011;10238;49.556;10.956;2023-04-25T08:58:35;6.70;;;4.57;;
20154;SDS011;10238;49.556;10.956;2023-04-25T09:01:23;5.95;;;4.05;;
20154;SDS011;10238;49.556;10.956;2023-04-25T09:04:12;5.65;;;5.15;;
20154;SDS011;10238;49.556;10.956;2023-04-25T09:07:03;4.97;;;4.57;;
20154;SDS011;10238;49.556;10.956;2023-04-25T09:09:51;5.13;;;4.78;;
20154;SDS011;10238;49.556;10.956;2023-04-25T09:12:39;4.78;;;4.38;;
20154;SDS011;10238;49.556;10.956;2023-04-25T09:15:28;5.53;;;5.13;;
20154;SDS011;10238;49.556;10.956;2023-04-25T09:18:21;7.88;;;5.05;;
20154;SDS011;10238;49.556;10.956;2023-04-25T09:21:14;7.43;;;6.38;;
20154;SDS011;10238;49.556;10.956;2023-04-25T09:24:02;9.18;;;8.57;;
20154;SDS011;10238;49.556;10.956;2023-04-25T09:26:51;6.15;;;5.70;;
20154;SDS011;10238;49.556;10.956;2023-04-25T09:29:39;5.68;;;5.15;;
20154;SDS011;10238;49.556;10.956;2023-04-25T09:32:29;5.57;;;4.97;;
20154;SDS011;10238;49.556;10.956;2023-04-25T09:35:23;7.88;;;7.38;;
20154;SDS011;10238;49.556;10.956;2023-04-25T09:38:13;8.23;;;7.72;;
20154;SDS011;10238;49.556;10.956;2023-04-25T09:41:04;5.55;;;5.15;;
20154;SDS011;10238;49.556;10.956;2023-04-25T09:44:06;5.80;;;5.30;;
20154;SDS011;10238;49.556;10.956;2023-04-25T09:47:14;5.47;;;5.18;;
20154;SDS011;10238;49.556;10.956;2023-04-25T09:50:25;3.80;;;3.10;;
20154;SDS011;10238;49.556;10.956;2023-04-25T09:53:12;3.03;;;2.72;;
20154;SDS011;10238;49.556;10.956;2023-04-25T09:56:00;4.82;;;2.90;;
20154;SDS011;10238;49.556;10.956;2023-04-25T09:58:52;5.72;;;2.42;;
20154;SDS011;10238;49.556;10.956;2023-04-25T10:01:41;4.38;;;2.10;;
20154;SDS011;10238;49.556;10.956;2023-04-25T10:04:32;4.40;;;2.25;;
20154;SDS011;10238;49.556;10.956;2023-04-25T10:07:23;5.00;;;2.80;;
20154;SDS011;10238;49.556;10.956;2023-04-25T10:10:15;5.30;;;2.50;;
20154;SDS011;10238;49.556;10.956;2023-04-25T10:13:05;4.10;;;2.30;;
20154;SDS011;10238;49.556;10.956;2023-04-25T10:15:53;2.92;;;2.72;;
20154;SDS011;10238;49.556;10.956;2023-04-25T10:18:43;4.97;;;4.13;;
20154;SDS011;10238;49.556;10.956;2023-04-25T10:21:32;5.05;;;3.17;;
20154;SDS011;10238;49.556;10.956;2023-04-25T10:24:23;3.25;;;2.15;;
20154;SDS011;10238;49.556;10.956;2023-04-25T10:27:13;4.35;;;2.10;;
20154;SDS011;10238;49.556;10.956;2023-04-25T10:30:01;2.72;;;2.53;;
20154;SDS011;10238;49.556;10.956;2023-04-25T10:32:50;3.53;;;3.17;;
20154;SDS011;10238;49.556;10.956;2023-04-25T10:35:42;3.88;;;3.58;;
20154;SDS011;10238;49.556;10.956;2023-04-25T10:38:34;3.00;;;2.63;;
20154;SDS011;10238;49.556;10.956;2023-04-25T10:41:23;2.20;;;2.10;;
20154;SDS011;10238;49.556;10.956;2023-04-25T10:44:11;3.53;;;2.20;;
20154;SDS011;10238;49.556;10.956;2023-04-25T10:47:01;1.90;;;1.80;;
20154;SDS011;10238;49.556;10.956;2023-04-25T10:49:51;2.20;;;2.00;;
20154;SDS011;10238;49.556;10.956;2023-04-25T10:52:39;1.95;;;1.85;;
20154;SDS011;10238;49.556;10.956;2023-04-25T10:55:27;1.70;;;1.60;;
20154;SDS011;10238;49.556;10.956;2023-04-25T10:58:41;2.33;;;1.95;;
20154;SDS011;10238;49.556;10.956;2023-04-25T11:04:24;2.22;;;1.95;;
20154;SDS011;10238;49.556;10.956;2023-04-25T11:07:17;1.70;;;1.38;;
20154;SDS011;10238;49.556;10.956;2023-04-25T11:10:15;2.28;;;1.92;;
20154;SDS011;10238;49.556;10.956;2023-04-25T11:13:04;2.33;;;2.00;;
20154;SDS011;10238;49.556;10.956;2023-04-25T11:15:52;3.50;;;2.40;;
20154;SDS011;10238;49.556;10.956;2023-04-25T11:18:57;3.67;;;2.40;;
20154;SDS011;10238;49.556;10.956;2023-04-25T11:21:45;4.82;;;2.20;;
20154;SDS011;10238;49.556;10.956;2023-04-25T11:24:34;2.88;;;2.08;;
20154;SDS011;10238;49.556;10.956;2023-04-25T11:27:22;2.28;;;2.15;;
20154;SDS011;10238;49.556;10.956;2023-04-25T11:30:13;2.72;;;2.50;;
20154;SDS011;10238;49.556;10.956;2023-04-25T11:33:02;2.90;;;2.45;;
20154;SDS011;10238;49.556;10.956;2023-04-25T11:35:51;2.80;;;2.58;;
20154;SDS011;10238;49.556;10.956;2023-04-25T11:38:41;2.47;;;2.28;;
20154;SDS011;10238;49.556;10.956;2023-04-25T11:41:29;2.67;;;2.50;;
20154;SDS011;10238;49.556;10.956;2023-04-25T11:44:18;3.00;;;1.88;;
20154;SDS011;10238;49.556;10.956;2023-04-25T11:47:09;3.35;;;2.28;;
20154;SDS011;10238;49.556;10.956;2023-04-25T11:49:57;2.42;;;2.33;;
20154;SDS011;10238;49.556;10.956;2023-04-25T11:52:46;2.13;;;2.03;;
20154;SDS011;10238;49.556;10.956;2023-04-25T11:55:36;2.15;;;1.90;;
20154;SDS011;10238;49.556;10.956;2023-04-25T11:58:25;2.30;;;2.20;;
20154;SDS011;10238;49.556;10.956;2023-04-25T12:01:24;3.67;;;2.30;;
20154;SDS011;10238;49.556;10.956;2023-04-25T12:04:19;2.75;;;2.38;;
20154;SDS011;10238;49.556;10.956;2023-04-25T12:07:09;2.00;;;1.90;;
20154;SDS011;10238;49.556;10.956;2023-04-25T12:09:57;1.90;;;1.80;;
20154;SDS011;10238;49.556;10.956;2023-04-25T12:12:45;2.65;;;2.30;;
20154;SDS011;10238;49.556;10.956;2023-04-25T12:15:35;2.50;;;2.20;;
20154;SDS011;10238;49.556;10.956;2023-04-25T12:18:27;2.03;;;1.60;;
20154;SDS011;10238;49.556;10.956;2023-04-25T12:21:17;3.45;;;2.20;;
20154;SDS011;10238;49.556;10.956;2023-04-25T12:24:10;2.45;;;2.25;;
20154;SDS011;10238;49.556;10.956;2023-04-25T12:27:01;2.28;;;2.00;;
20154;SDS011;10238;49.556;10.956;2023-04-25T12:29:51;2.05;;;1.92;;
20154;SDS011;10238;49.556;10.956;2023-04-25T12:32:40;2.30;;;2.20;;
20154;SDS011;10238;49.556;10.956;2023-04-25T12:35:28;2.30;;;2.10;;
20154;SDS011;10238;49.556;10.956;2023-04-25T12:38:24;1.75;;;1.65;;
20154;SDS011;10238;49.556;10.956;2023-04-25T12:41:14;2.33;;;1.88;;
20154;SDS011;10238;49.556;10.956;2023-04-25T12:44:02;2.75;;;2.55;;
20154;SDS011;10238;49.556;10.956;2023-04-25T12:46:50;2.50;;;2.40;;
20154;SDS011;10238;49.556;10.956;2023-04-25T12:49:38;2.83;;;2.20;;
20154;SDS011;10238;49.556;10.956;2023-04-25T12:52:26;2.35;;;2.15;;
20154;SDS011;10238;49.556;10.956;2023-04-25T12:55:15;2.75;;;2.50;;
20154;SDS011;10238;49.556;10.956;2023-04-25T12:58:03;2.60;;;2.40;;
20154;SDS011;10238;49.556;10.956;2023-04-25T13:00:51;3.03;;;2.83;;
20154;SDS011;10238;49.556;10.956;2023-04-25T13:03:38;2.83;;;2.63;;
20154;SDS011;10238;49.556;10.956;2023-04-25T13:06:26;4.38;;;2.70;;
20154;SDS011;10238;49.556;10.956;2023-04-25T13:09:15;2.33;;;2.13;;
20154;SDS011;10238;49.556;10.956;2023-04-25T13:12:04;3.70;;;3.13;;
20154;SDS011;10238;49.556;10.956;2023-04-25T13:14:53;2.78;;;2.50;;
20154;SDS011;10238;49.556;10.956;2023-04-25T13:17:41;3.38;;;3.08;;
20154;SDS011;10238;49.556;10.956;2023-04-25T13:20:29;3.90;;;2.50;;
20154;SDS011;10238;49.556;10.956;2023-04-25T13:23:18;2.70;;;2.50;;
20154;SDS011;10238;49.556;10.956;2023-04-25T13:26:06;3.38;;;3.17;;
20154;SDS011;10238;49.556;10.956;2023-04-25T13:28:56;2.72;;;2.63;;
20154;SDS011;10238;49.556;10.956;2023-04-25T13:31:44;2.60;;;2.40;;
20154;SDS011;10238;49.556;10.956;2023-04-25T13:34:31;5.07;;;2.08;;
20154;SDS011;10238;49.556;10.956;2023-04-25T13:37:19;2.17;;;2.00;;
20154;SDS011;10238;49.556;10.956;2023-04-25T13:40:10;2.75;;;2.55;;
20154;SDS011;10238;49.556;10.956;2023-04-25T13:42:58;3.17;;;2.80;;
20154;SDS011;10238;49.556;10.956;2023-04-25T13:45:47;3.70;;;3.40;;
20154;SDS011;10238;49.556;10.956;2023-04-25T13:48:35;3.60;;;3.30;;
20154;SDS011;10238;49.556;10.956;2023-04-25T13:51:23;3.83;;;2.63;;
20154;SDS011;10238;49.556;10.956;2023-04-25T13:54:12;3.70;;;3.35;;
20154;SDS011;10238;49.556;10.956;2023-04-25T13:56:59;2.60;;;2.30;;
20154;SDS011;10238;49.556;10.956;2023-04-25T13:59:47;3.85;;;2.08;;
20154;SDS011;10238;49.556;10.956;2023-04-25T14:02:36;3.58;;;2.33;;
20154;SDS011;10238;49.556;10.956;2023-04-25T14:05:24;3.40;;;1.98;;
20154;SDS011;10238;49.556;10.956;2023-04-25T14:08:12;2.17;;;1.98;;
20154;SDS011;10238;49.556;10.956;2023-04-25T14:11:00;3.00;;;2.72;;
20154;SDS011;10238;49.556;10.956;2023-04-25T14:13:47;3.05;;;2.65;;
20154;SDS011;10238;49.556;10.956;2023-04-25T14:16:35;2.97;;;2.47;;
20154;SDS011;10238;49.556;10.956;2023-04-25T14:19:24;3.30;;;3.10;;
20154;SDS011;10238;49.556;10.956;2023-04-25T14:22:12;4.20;;;3.80;;
20154;SDS011;10238;49.556;10.956;2023-04-25T14:25:00;3.30;;;3.00;;
20154;SDS011;10238;49.556;10.956;2023-04-25T14:27:48;3.30;;;2.22;;
20154;SDS011;10238;49.556;10.956;2023-04-25T14:30:36;2.78;;;2.38;;
20154;SDS011;10238;49.556;10.956;2023-04-25T14:33:23;5.45;;;3.10;;
20154;SDS011;10238;49.556;10.956;2023-04-25T14:36:12;4.47;;;2.80;;
20154;SDS011;10238;49.556;10.956;2023-04-25T14:39:00;4.28;;;2.60;;
20154;SDS011;10238;49.556;10.956;2023-04-25T14:41:50;2.30;;;2.10;;
20154;SDS011;10238;49.556;10.956;2023-04-25T14:44:38;3.15;;;2.95;;
20154;SDS011;10238;49.556;10.956;2023-04-25T14:47:25;3.55;;;3.25;;
20154;SDS011;10238;49.556;10.956;2023-04-25T14:50:13;3.58;;;3.33;;
20154;SDS011;10238;49.556;10.956;2023-04-25T14:53:02;3.25;;;3.05;;
20154;SDS011;10238;49.556;10.956;2023-04-25T14:55:50;3.38;;;2.92;;
20154;SDS011;10238;49.556;10.956;2023-04-25T14:58:38;7.82;;;7.30;;
20154;SDS011;10238;49.556;10.956;2023-04-25T15:01:26;8.07;;;7.45;;
20154;SDS011;10238;49.556;10.956;2023-04-25T15:04:15;6.70;;;6.30;;
20154;SDS011;10238;49.556;10.956;2023-04-25T15:07:03;8.00;;;7.40;;
20154;SDS011;10238;49.556;10.956;2023-04-25T15:09:52;7.15;;;6.75;;
20154;SDS011;10238;49.556;10.956;2023-04-25T15:12:41;6.05;;;3.13;;
20154;SDS011;10238;49.556;10.956;2023-04-25T15:15:32;4.10;;;2.40;;
20154;SDS011;10238;49.556;10.956;2023-04-25T15:18:20;2.50;;;2.30;;
20154;SDS011;10238;49.556;10.956;2023-04-25T15:21:09;2.67;;;2.47;;
20154;SDS011;10238;49.556;10.956;2023-04-25T15:23:57;3.90;;;3.50;;
20154;SDS011;10238;49.556;10.956;2023-04-25T15:26:46;5.32;;;3.42;;
20154;SDS011;10238;49.556;10.956;2023-04-25T15:29:33;3.85;;;2.45;;
20154;SDS011;10238;49.556;10.956;2023-04-25T15:32:21;4.75;;;2.85;;
20154;SDS011;10238;49.556;10.956;2023-04-25T15:35:09;3.30;;;2.53;;
20154;SDS011;10238;49.556;10.956;2023-04-25T15:37:57;4.57;;;3.00;;
20154;SDS011;10238;49.556;10.956;2023-04-25T15:40:45;3.42;;;2.80;;
20154;SDS011;10238;49.556;10.956;2023-04-25T15:43:34;3.80;;;2.83;;
20154;SDS011;10238;49.556;10.956;2023-04-25T15:46:23;5.53;;;2.72;;
20154;SDS011;10238;49.556;10.956;2023-04-25T15:49:11;4.90;;;2.80;;
20154;SDS011;10238;49.556;10.956;2023-04-25T15:51:58;4.85;;;2.67;;
20154;SDS011;10238;49.556;10.956;2023-04-25T15:54:46;5.25;;;2.65;;
20154;SDS011;10238;49.556;10.956;2023-04-25T15:57:35;3.75;;;2.58;;
20154;SDS011;10238;49.556;10.956;2023-04-25T16:00:25;4.80;;;2.67;;
20154;SDS011;10238;49.556;10.956;2023-04-25T16:03:12;2.65;;;2.45;;
20154;SDS011;10238;49.556;10.956;2023-04-25T16:06:00;3.53;;;2.70;;
20154;SDS011;10238;49.556;10.956;2023-04-25T16:08:49;2.13;;;1.92;;
20154;SDS011;10238;49.556;10.956;2023-04-25T16:11:37;4.35;;;2.40;;
20154;SDS011;10238;49.556;10.956;2023-04-25T16:14:25;2.47;;;2.10;;
20154;SDS011;10238;49.556;10.956;2023-04-25T16:17:14;5.72;;;2.60;;
20154;SDS011;10238;49.556;10.956;2023-04-25T16:20:02;6.68;;;2.88;;
20154;SDS011;10238;49.556;10.956;2023-04-25T16:22:54;4.05;;;2.55;;
20154;SDS011;10238;49.556;10.956;2023-04-25T16:25:41;5.40;;;2.30;;
20154;SDS011;10238;49.556;10.956;2023-04-25T16:28:29;5.47;;;2.55;;
20154;SDS011;10238;49.556;10.956;2023-04-25T16:31:17;3.03;;;2.05;;
20154;SDS011;10238;49.556;10.956;2023-04-25T16:34:07;3.55;;;2.40;;
20154;SDS011;10238;49.556;10.956;2023-04-25T16:36:54;3.05;;;2.05;;
20154;SDS011;10238;49.556;10.956;2023-04-25T16:39:43;2.55;;;2.33;;
20154;SDS011;10238;49.556;10.956;2023-04-25T16:42:32;3.13;;;2.80;;
20154;SDS011;10238;49.556;10.956;2023-04-25T16:45:19;3.70;;;3.00;;